createdAt,value
2022-09-23T00:01:24.113Z,69.40
2022-09-23T00:03:52.063Z,73.00
2022-09-23T00:06:22.750Z,69.50
2022-09-23T00:08:51.552Z,70.10
2022-09-23T00:11:20.674Z,70.10
2022-09-23T00:13:50.135Z,70.30
2022-09-23T00:16:20.624Z,70.30
2022-09-23T00:18:49.876Z,70.30
2022-09-23T00:21:19.507Z,70.20
2022-09-23T00:23:49.034Z,71.50
2022-09-23T00:26:19.303Z,73.60
2022-09-23T00:28:47.903Z,72.30
2022-09-23T00:31:18.615Z,72.50
2022-09-23T00:33:46.631Z,72.10
2022-09-23T00:36:16.542Z,71.50
2022-09-23T00:38:45.098Z,71.60
2022-09-23T00:41:16.016Z,71.20
2022-09-23T00:43:46.255Z,71.20
2022-09-23T00:46:17.720Z,71.00
2022-09-23T00:48:46.790Z,70.90
2022-09-23T00:51:19.504Z,70.70
2022-09-23T00:53:49.483Z,70.60
2022-09-23T00:56:20.791Z,72.60
2022-09-23T00:58:51.342Z,70.60
2022-09-23T01:01:21.686Z,70.60
2022-09-23T01:03:50.388Z,70.60
2022-09-23T01:06:18.479Z,70.30
2022-09-23T01:08:48.309Z,70.60
2022-09-23T01:11:37.413Z,70.80
2022-09-23T01:14:24.688Z,71.10
2022-09-23T01:16:59.844Z,71.00
2022-09-23T01:19:52.663Z,70.70
2022-09-23T01:22:30.504Z,70.80
2022-09-23T01:25:22.600Z,70.70
2022-09-23T01:28:13.054Z,71.00
2022-09-23T01:30:49.028Z,70.80
2022-09-23T01:33:24.212Z,70.70
2022-09-23T01:36:07.525Z,70.70
2022-09-23T01:38:45.088Z,70.80
2022-09-23T01:41:26.715Z,70.10
2022-09-23T01:44:02.961Z,68.30
2022-09-23T01:46:36.823Z,70.80
2022-09-23T01:49:10.698Z,70.90
2022-09-23T01:51:42.837Z,70.50
2022-09-23T01:54:16.543Z,71.00
2022-09-23T01:56:50.107Z,71.20
2022-09-23T01:59:23.359Z,70.70
2022-09-23T02:01:57.594Z,71.30
2022-09-23T02:04:31.016Z,71.30
2022-09-23T02:07:03.590Z,71.30
2022-09-23T02:09:37.250Z,71.10
2022-09-23T02:12:12.575Z,71.40
2022-09-23T02:14:46.533Z,70.90
2022-09-23T02:17:20.581Z,73.30
2022-09-23T02:19:53.782Z,71.60
2022-09-23T02:22:25.092Z,71.60
2022-09-23T02:24:54.628Z,71.60
2022-09-23T02:27:30.424Z,71.10
2022-09-23T02:30:04.289Z,71.60
2022-09-23T02:32:37.261Z,71.20
2022-09-23T02:35:15.490Z,71.80
2022-09-23T02:37:48.269Z,71.80
2022-09-23T02:40:23.746Z,74.50
2022-09-23T02:43:02.644Z,71.90
2022-09-23T02:45:31.189Z,72.00
2022-09-23T02:48:06.487Z,71.50
2022-09-23T02:50:35.308Z,72.10
2022-09-23T02:53:04.251Z,71.30
2022-09-23T02:55:32.569Z,71.20
2022-09-23T02:58:02.595Z,71.60
2022-09-23T03:00:40.442Z,71.20
2022-09-23T03:03:26.016Z,71.30
2022-09-23T03:05:57.327Z,72.10
2022-09-23T03:08:37.658Z,71.90
2022-09-23T03:11:08.488Z,71.30
2022-09-23T03:13:48.083Z,71.30
2022-09-23T03:16:27.764Z,71.40
2022-09-23T03:19:01.702Z,72.10
2022-09-23T03:21:35.832Z,71.40
2022-09-23T03:24:08.315Z,71.30
2022-09-23T03:26:39.937Z,71.80
2022-09-23T03:29:11.182Z,71.50
2022-09-23T03:31:42.411Z,71.50
2022-09-23T03:34:16.636Z,71.50
2022-09-23T03:36:53.817Z,71.50
2022-09-23T03:39:30.983Z,72.00
2022-09-23T03:42:02.807Z,72.10
2022-09-23T03:44:31.971Z,72.10
2022-09-23T03:47:02.335Z,71.90
2022-09-23T03:49:35.894Z,71.80
2022-09-23T03:52:04.152Z,72.00
2022-09-23T03:54:32.275Z,72.00
2022-09-23T03:57:01.963Z,72.10
2022-09-23T03:59:31.310Z,72.00
2022-09-23T04:02:00.629Z,72.00
2022-09-23T04:06:58.188Z,72.10
2022-09-23T04:09:26.039Z,72.40
2022-09-23T04:11:54.766Z,72.20
2022-09-23T04:14:23.248Z,72.80
2022-09-23T04:16:51.672Z,72.60
2022-09-23T04:19:19.828Z,72.50
2022-09-23T04:21:48.321Z,72.60
2022-09-23T04:24:18.192Z,72.70
2022-09-23T04:26:46.043Z,72.70
2022-09-23T04:29:13.867Z,72.80
2022-09-23T04:31:42.074Z,73.00
2022-09-23T04:34:10.583Z,72.90
2022-09-23T04:36:38.516Z,72.90
2022-09-23T04:39:06.631Z,72.90
2022-09-23T04:41:35.999Z,73.00
2022-09-23T04:44:06.552Z,73.20
2022-09-23T04:46:34.477Z,73.50
2022-09-23T04:49:02.389Z,73.40
2022-09-23T04:51:30.241Z,73.70
2022-09-23T04:53:58.070Z,75.70
2022-09-23T04:56:27.786Z,73.80
2022-09-23T04:58:58.232Z,74.00
2022-09-23T05:01:28.232Z,74.00
2022-09-23T05:03:58.227Z,74.20
2022-09-23T05:06:26.741Z,74.30
2022-09-23T05:08:56.814Z,74.50
2022-09-23T05:11:26.345Z,74.50
2022-09-23T05:13:56.739Z,74.70
2022-09-23T05:16:25.429Z,74.80
2022-09-23T05:18:54.282Z,75.00
2022-09-23T05:21:24.061Z,75.10
2022-09-23T05:23:54.071Z,75.30
2022-09-23T05:26:23.269Z,75.30
2022-09-23T05:28:51.071Z,75.50
2022-09-23T05:31:21.808Z,75.70
2022-09-23T05:33:51.827Z,75.50
2022-09-23T05:36:20.648Z,78.40
2022-09-23T05:38:49.840Z,75.70
2022-09-23T05:41:18.948Z,75.60
2022-09-23T05:43:47.195Z,78.50
2022-09-23T05:46:17.595Z,76.90
2022-09-23T05:48:47.642Z,76.40
2022-09-23T05:51:17.267Z,77.70
2022-09-23T05:53:45.797Z,76.30
2022-09-23T05:56:14.744Z,76.10
2022-09-23T05:58:42.563Z,76.30
2022-09-23T06:01:12.181Z,79.20
2022-09-23T06:03:40.911Z,76.60
2022-09-23T06:06:14.442Z,76.30
2022-09-23T06:08:42.505Z,76.60
2022-09-23T06:11:12.091Z,76.40
2022-09-23T06:13:40.804Z,79.00
2022-09-23T06:16:10.450Z,76.90
2022-09-23T06:18:40.471Z,77.10
2022-09-23T06:21:11.225Z,77.20
2022-09-23T06:23:41.446Z,77.20
2022-09-23T06:26:11.908Z,76.90
2022-09-23T06:28:41.743Z,77.90
2022-09-23T06:31:13.863Z,77.30
2022-09-23T06:33:43.278Z,77.40
2022-09-23T06:36:19.602Z,77.30
2022-09-23T06:38:52.409Z,77.20
2022-09-23T06:41:21.240Z,77.20
2022-09-23T06:43:49.187Z,77.30
2022-09-23T06:46:17.669Z,77.40
2022-09-23T06:48:46.428Z,77.60
2022-09-23T06:51:19.399Z,77.60
2022-09-23T06:53:48.338Z,77.90
2022-09-23T06:56:17.880Z,77.70
2022-09-23T06:58:46.192Z,77.80
2022-09-23T07:01:17.051Z,78.10
2022-09-23T07:03:45.977Z,78.40
2022-09-23T07:06:15.873Z,78.50
2022-09-23T07:08:46.834Z,78.20
2022-09-23T07:11:15.617Z,78.40
2022-09-23T07:13:43.916Z,78.60
2022-09-23T07:16:12.745Z,76.90
2022-09-23T07:18:41.259Z,78.50
2022-09-23T07:21:11.444Z,78.60
2022-09-23T07:23:40.738Z,78.70
2022-09-23T07:26:08.867Z,79.10
2022-09-23T07:28:38.252Z,78.60
2022-09-23T07:31:08.021Z,78.30
2022-09-23T07:33:36.603Z,78.80
2022-09-23T07:36:10.327Z,78.60
2022-09-23T07:38:44.990Z,78.70
2022-09-23T07:41:16.185Z,78.50
2022-09-23T07:46:19.262Z,77.60
2022-09-23T07:48:47.615Z,77.90
2022-09-23T07:51:19.090Z,77.80
2022-09-23T07:53:49.077Z,78.10
2022-09-23T07:56:18.988Z,78.00
2022-09-23T07:58:59.968Z,77.80
2022-09-23T08:01:31.688Z,80.80
2022-09-23T08:04:00.744Z,78.30
2022-09-23T08:06:28.933Z,78.10
2022-09-23T08:09:00.006Z,77.60
2022-09-23T08:11:28.777Z,77.70
2022-09-23T08:13:57.183Z,79.20
2022-09-23T08:16:25.126Z,76.40
2022-09-23T08:18:54.511Z,78.90
2022-09-23T08:21:23.343Z,76.00
2022-09-23T08:23:51.769Z,76.40
2022-09-23T08:26:22.304Z,76.10
2022-09-23T08:28:50.575Z,77.60
2022-09-23T08:31:18.544Z,75.60
2022-09-23T08:33:46.444Z,75.60
2022-09-23T08:36:15.806Z,75.70
2022-09-23T08:38:44.081Z,75.30
2022-09-23T08:41:20.940Z,75.20
2022-09-23T08:43:50.967Z,74.60
2022-09-23T08:46:27.070Z,74.10
2022-09-23T08:48:56.738Z,74.60
2022-09-23T08:51:35.305Z,74.60
2022-09-23T08:54:03.501Z,74.60
2022-09-23T08:56:32.215Z,74.00
2022-09-23T08:59:07.414Z,74.00
2022-09-23T09:01:42.439Z,73.90
2022-09-23T09:04:21.333Z,72.90
2022-09-23T09:07:03.427Z,73.00
2022-09-23T09:09:45.490Z,73.50
2022-09-23T09:12:17.890Z,72.20
2022-09-23T09:14:55.922Z,71.70
2022-09-23T09:17:35.563Z,71.30
2022-09-23T09:20:13.672Z,71.30
2022-09-23T09:22:52.557Z,72.20
2022-09-23T09:25:38.727Z,71.90
2022-09-23T09:28:19.139Z,70.50
2022-09-23T09:30:51.665Z,70.80
2022-09-23T09:33:27.511Z,70.70
2022-09-23T09:36:08.857Z,70.50
2022-09-23T09:38:38.340Z,71.40
2022-09-23T09:41:14.818Z,70.20
2022-09-23T09:43:44.868Z,69.70
2022-09-23T09:46:34.138Z,69.70
2022-09-23T09:49:09.321Z,71.20
2022-09-23T09:51:42.504Z,69.80
2022-09-23T09:54:29.949Z,69.60
2022-09-23T09:56:58.470Z,69.70
2022-09-23T09:59:29.073Z,69.10
2022-09-23T10:02:25.603Z,68.90
2022-09-23T10:05:02.960Z,69.90
2022-09-23T10:07:35.664Z,68.20
2022-09-23T10:10:31.722Z,68.40
2022-09-23T10:13:15.522Z,68.30
2022-09-23T10:15:45.440Z,70.30
2022-09-23T10:18:20.513Z,68.50
2022-09-23T10:20:49.617Z,68.50
2022-09-23T10:23:23.348Z,68.00
2022-09-23T10:26:00.371Z,68.00
2022-09-23T10:28:46.921Z,69.10
2022-09-23T10:31:16.792Z,67.80
2022-09-23T10:33:50.728Z,69.00
2022-09-23T10:36:19.369Z,68.00
2022-09-23T10:38:50.498Z,67.40
2022-09-23T10:41:49.935Z,67.60
2022-09-23T10:44:52.719Z,67.90
2022-09-23T10:47:32.210Z,67.60
2022-09-23T10:50:36.715Z,68.80
2022-09-23T10:53:12.802Z,66.90
2022-09-23T10:56:22.881Z,69.50
2022-09-23T10:59:12.687Z,66.40
2022-09-23T11:01:51.074Z,66.30
2022-09-23T11:04:40.302Z,65.80
2022-09-23T11:07:20.686Z,65.90
2022-09-23T11:10:29.109Z,65.90
2022-09-23T11:13:07.842Z,65.90
2022-09-23T11:15:50.722Z,65.50
2022-09-23T11:18:31.973Z,65.50
2022-09-23T11:21:09.951Z,65.80
2022-09-23T11:24:12.349Z,65.50
2022-09-23T11:26:53.095Z,65.50
2022-09-23T11:29:35.069Z,65.50
2022-09-23T11:32:15.679Z,68.50
2022-09-23T11:35:17.518Z,65.80
2022-09-23T11:37:50.036Z,65.50
2022-09-23T11:40:24.512Z,65.70
2022-09-23T11:42:58.195Z,64.50
2022-09-23T11:45:31.671Z,63.80
2022-09-23T11:48:05.214Z,64.90
2022-09-23T11:50:39.284Z,62.60
2022-09-23T11:53:13.984Z,64.00
2022-09-23T11:55:56.143Z,61.30
2022-09-23T11:58:29.189Z,63.20
2022-09-23T12:01:04.252Z,62.60
2022-09-23T12:03:44.960Z,61.80
2022-09-23T12:06:18.224Z,62.30
2022-09-23T12:08:46.143Z,64.70
2022-09-23T12:11:25.418Z,61.40
2022-09-23T12:14:02.892Z,60.60
2022-09-23T12:17:00.352Z,61.10
2022-09-23T12:19:47.314Z,61.20
2022-09-23T12:22:30.799Z,60.80
2022-09-23T12:25:08.131Z,60.50
2022-09-23T12:27:43.756Z,63.20
2022-09-23T12:30:17.784Z,60.30
2022-09-23T12:32:46.095Z,59.90
2022-09-23T12:35:25.350Z,59.60
2022-09-23T12:37:54.018Z,58.90
2022-09-23T12:40:28.340Z,59.30
2022-09-23T12:42:56.637Z,59.50
2022-09-23T12:45:39.742Z,59.90
2022-09-23T12:48:40.403Z,59.70
2022-09-23T12:51:18.407Z,59.60
2022-09-23T12:54:18.041Z,59.30
2022-09-23T12:57:06.763Z,59.30
2022-09-23T13:00:16.133Z,59.50
2022-09-23T13:03:08.125Z,59.50
2022-09-23T13:06:03.884Z,59.80
2022-09-23T13:08:33.928Z,59.70
2022-09-23T13:11:03.986Z,60.00
2022-09-23T13:13:37.221Z,60.00
2022-09-23T13:16:13.585Z,60.20
2022-09-23T13:19:00.638Z,59.20
2022-09-23T13:22:01.229Z,60.60
2022-09-23T13:24:43.122Z,59.10
2022-09-23T13:27:27.890Z,59.40
2022-09-23T13:30:00.908Z,57.90
2022-09-23T13:32:32.500Z,61.00
2022-09-23T13:35:04.201Z,57.20
2022-09-23T13:37:41.948Z,57.80
2022-09-23T13:40:24.802Z,57.70
2022-09-23T13:42:57.918Z,57.90
2022-09-23T13:45:27.296Z,58.50
2022-09-23T13:48:01.251Z,57.70
2022-09-23T13:50:34.667Z,58.00
2022-09-23T13:53:09.143Z,57.50
2022-09-23T13:55:39.903Z,57.30
2022-09-23T13:58:18.607Z,57.70
2022-09-23T14:00:46.908Z,57.50
2022-09-23T14:03:20.056Z,57.80
2022-09-23T14:05:49.405Z,58.00
2022-09-23T14:08:17.767Z,58.10
2022-09-23T14:10:48.165Z,57.60
2022-09-23T14:13:25.864Z,58.10
2022-09-23T14:15:56.236Z,58.20
2022-09-23T14:18:31.832Z,58.50
2022-09-23T14:20:59.980Z,58.00
2022-09-23T14:23:28.223Z,58.20
2022-09-23T14:25:58.819Z,58.50
2022-09-23T14:28:28.769Z,58.10
2022-09-23T14:30:58.508Z,57.80
2022-09-23T14:33:29.171Z,57.90
2022-09-23T14:36:06.460Z,58.00
2022-09-23T14:38:52.341Z,58.10
2022-09-23T14:41:24.805Z,58.50
2022-09-23T14:43:57.088Z,58.40
2022-09-23T14:46:27.212Z,58.40
2022-09-23T14:49:06.667Z,58.70
2022-09-23T14:51:42.279Z,58.60
2022-09-23T14:54:46.636Z,58.90
2022-09-23T14:57:28.464Z,59.20
2022-09-23T15:00:00.122Z,59.70
2022-09-23T15:02:34.063Z,59.80
2022-09-23T15:05:14.726Z,59.60
2022-09-23T15:07:44.235Z,59.90
2022-09-23T15:10:19.859Z,60.00
2022-09-23T15:12:50.378Z,60.40
2022-09-23T15:15:19.422Z,62.20
2022-09-23T15:17:48.243Z,60.30
2022-09-23T15:20:24.378Z,60.30
2022-09-23T15:22:55.087Z,60.50
2022-09-23T15:25:28.186Z,60.90
2022-09-23T15:28:17.876Z,61.10
2022-09-23T15:30:45.974Z,64.30
2022-09-23T15:33:14.896Z,61.50
2022-09-23T15:35:47.076Z,61.50
2022-09-23T15:38:15.061Z,64.30
2022-09-23T15:40:43.537Z,61.30
2022-09-23T15:43:20.588Z,61.50
2022-09-23T15:45:52.785Z,61.70
2022-09-23T15:48:24.979Z,62.00
2022-09-23T15:50:54.424Z,64.00
2022-09-23T15:53:26.062Z,62.20
2022-09-23T15:55:54.091Z,64.30
2022-09-23T15:58:25.290Z,62.10
2022-09-23T16:00:56.870Z,62.60
2022-09-23T16:03:28.889Z,63.20
2022-09-23T16:06:02.361Z,64.20
2022-09-23T16:08:32.918Z,63.80
2022-09-23T16:11:01.231Z,63.80
2022-09-23T16:13:30.479Z,65.60
2022-09-23T16:15:58.419Z,64.90
2022-09-23T16:18:26.503Z,65.10
2022-09-23T16:20:54.934Z,65.30
2022-09-23T16:23:35.549Z,65.40
2022-09-23T16:26:05.937Z,66.20
2022-09-23T16:28:35.623Z,66.40
2022-09-23T16:31:03.519Z,66.60
2022-09-23T16:33:31.381Z,69.60
2022-09-23T16:36:01.023Z,67.00
2022-09-23T16:38:29.287Z,67.10
2022-09-23T16:40:59.322Z,70.40
2022-09-23T16:43:31.685Z,67.70
2022-09-23T16:46:01.170Z,68.90
2022-09-23T16:48:29.207Z,68.70
2022-09-23T16:50:57.453Z,68.70
2022-09-23T16:53:26.470Z,69.00
2022-09-23T16:55:54.445Z,69.10
2022-09-23T16:58:22.397Z,69.60
2022-09-23T17:01:09.367Z,69.70
2022-09-23T17:03:41.574Z,70.30
2022-09-23T17:06:12.966Z,70.60
2022-09-23T17:08:41.656Z,70.70
2022-09-23T17:11:10.940Z,70.70
2022-09-23T17:13:40.479Z,71.10
2022-09-23T17:16:08.410Z,74.20
2022-09-23T17:18:38.793Z,71.10
2022-09-23T17:21:09.511Z,74.00
2022-09-23T17:23:38.245Z,71.80
2022-09-23T17:26:09.648Z,72.80
2022-09-23T17:28:37.645Z,71.80
2022-09-23T17:31:07.388Z,71.80
2022-09-23T17:33:37.640Z,72.20
2022-09-23T17:36:09.274Z,72.50
2022-09-23T17:38:39.210Z,72.90
2022-09-23T17:41:08.671Z,72.60
2022-09-23T17:43:36.948Z,73.00
2022-09-23T17:46:07.067Z,74.10
2022-09-23T17:48:36.636Z,73.40
2022-09-23T17:51:06.907Z,75.30
2022-09-23T17:53:38.412Z,73.70
2022-09-23T17:56:08.066Z,73.90
2022-09-23T17:58:38.240Z,73.90
2022-09-23T18:01:09.963Z,73.90
2022-09-23T18:03:38.703Z,75.50
2022-09-23T18:06:08.706Z,74.10
2022-09-23T18:08:38.549Z,74.30
2022-09-23T18:11:19.433Z,74.60
2022-09-23T18:13:52.794Z,75.00
2022-09-23T18:16:21.837Z,75.00
2022-09-23T18:18:54.136Z,74.80
2022-09-23T18:21:22.496Z,75.20
2022-09-23T18:23:51.921Z,74.70
2022-09-23T18:26:21.933Z,74.90
2022-09-23T18:28:52.858Z,75.30
2022-09-23T18:31:22.575Z,78.30
2022-09-23T18:33:51.415Z,75.50
2022-09-23T18:36:19.816Z,75.60
2022-09-23T18:38:47.689Z,75.60
2022-09-23T18:41:18.006Z,75.50
2022-09-23T18:43:48.689Z,75.50
2022-09-23T18:46:18.914Z,75.80
2022-09-23T18:49:04.601Z,75.90
2022-09-23T18:51:34.670Z,75.80
2022-09-23T18:54:04.553Z,75.90
2022-09-23T18:56:41.030Z,76.10
2022-09-23T18:59:12.610Z,77.60
2022-09-23T19:01:40.627Z,77.10
2022-09-23T19:04:08.646Z,77.00
2022-09-23T19:06:37.506Z,77.40
2022-09-23T19:09:07.088Z,77.20
2022-09-23T19:11:37.172Z,77.20
2022-09-23T19:14:06.979Z,80.50
2022-09-23T19:16:36.129Z,79.60
2022-09-23T19:19:05.756Z,77.20
2022-09-23T19:21:34.288Z,77.30
2022-09-23T19:24:05.199Z,79.90
2022-09-23T19:26:36.610Z,77.50
2022-09-23T19:29:09.818Z,77.40
2022-09-23T19:31:39.887Z,81.00
2022-09-23T19:34:10.636Z,77.50
2022-09-23T19:36:40.527Z,77.70
2022-09-23T19:39:13.315Z,77.60
2022-09-23T19:41:41.172Z,77.70
2022-09-23T19:44:10.506Z,77.60
2022-09-23T19:46:42.798Z,79.00
2022-09-23T19:49:11.510Z,78.00
2022-09-23T19:51:40.166Z,77.90
2022-09-23T19:54:09.092Z,81.60
2022-09-23T19:56:38.571Z,80.30
2022-09-23T19:59:09.257Z,78.20
2022-09-23T20:01:38.513Z,81.00
2022-09-23T20:04:06.712Z,78.40
2022-09-23T20:06:37.978Z,78.40
2022-09-23T20:09:06.752Z,78.80
2022-09-23T20:11:35.042Z,78.80
2022-09-23T20:14:04.986Z,79.80
2022-09-23T20:16:35.204Z,80.20
2022-09-23T20:19:05.445Z,81.00
2022-09-23T20:21:34.216Z,80.70
2022-09-23T20:24:04.346Z,83.10
2022-09-23T20:26:49.672Z,80.10
2022-09-23T20:29:17.569Z,79.60
2022-09-23T20:31:45.735Z,79.30
2022-09-23T20:34:15.165Z,79.20
2022-09-23T20:36:43.550Z,79.30
2022-09-23T20:39:11.560Z,79.30
2022-09-23T20:41:40.044Z,81.70
2022-09-23T20:44:12.557Z,79.30
2022-09-23T20:46:46.986Z,79.60
2022-09-23T20:49:18.389Z,79.40
2022-09-23T20:51:48.625Z,79.40
2022-09-23T20:54:18.862Z,79.40
2022-09-23T20:56:47.054Z,79.60
2022-09-23T20:59:17.432Z,79.00
2022-09-23T21:01:45.374Z,79.30
2022-09-23T21:04:13.348Z,79.20
2022-09-23T21:06:42.729Z,79.10
2022-09-23T21:09:10.693Z,79.40
2022-09-23T21:11:38.499Z,79.30
2022-09-23T21:14:06.520Z,79.30
2022-09-23T21:16:34.706Z,79.30
2022-09-23T21:19:03.873Z,81.40
2022-09-23T21:21:31.749Z,79.40
2022-09-23T21:24:23.660Z,79.40
2022-09-23T21:26:50.408Z,79.80
2022-09-23T21:29:18.439Z,79.30
2022-09-23T21:31:49.535Z,79.10
2022-09-23T21:34:18.028Z,79.60
2022-09-23T21:36:47.820Z,80.00
2022-09-23T21:39:17.075Z,83.00
2022-09-23T21:41:44.948Z,80.60
2022-09-23T21:44:13.020Z,80.60
2022-09-23T21:46:41.075Z,80.30
2022-09-23T21:49:09.128Z,83.90
2022-09-23T21:51:41.069Z,81.90
2022-09-23T21:54:14.105Z,80.40
2022-09-23T21:56:44.635Z,80.50
2022-09-23T21:59:12.871Z,80.50
2022-09-23T22:01:44.234Z,79.80
2022-09-23T22:04:17.000Z,80.50
2022-09-23T22:06:45.778Z,80.60
2022-09-23T22:09:15.817Z,81.70
2022-09-23T22:12:03.166Z,81.30
2022-09-23T22:14:31.166Z,82.70
2022-09-23T22:17:01.400Z,80.20
2022-09-23T22:19:34.663Z,80.60
2022-09-23T22:22:03.624Z,80.70
2022-09-23T22:24:31.422Z,80.70
2022-09-23T22:27:00.647Z,80.50
2022-09-23T22:29:46.162Z,80.70
2022-09-23T22:32:31.693Z,82.20
2022-09-23T22:34:59.704Z,80.80
2022-09-23T22:37:32.723Z,84.50
2022-09-23T22:40:00.863Z,82.70
2022-09-23T22:42:30.877Z,81.00
2022-09-23T22:44:58.917Z,81.10
2022-09-23T22:47:27.070Z,80.90
2022-09-23T22:49:55.592Z,82.30
2022-09-23T22:52:25.107Z,81.40
2022-09-23T22:54:53.231Z,81.40
2022-09-23T22:57:21.299Z,81.40
2022-09-23T22:59:51.389Z,81.50
2022-09-23T23:02:20.770Z,81.50
2022-09-23T23:04:49.532Z,82.00
2022-09-23T23:07:21.027Z,82.10
2022-09-23T23:09:50.389Z,82.00
2022-09-23T23:12:20.140Z,82.10
2022-09-23T23:14:50.180Z,82.10
2022-09-23T23:17:18.759Z,82.10
2022-09-23T23:19:46.856Z,81.90
2022-09-23T23:22:14.802Z,82.50
2022-09-23T23:24:43.204Z,82.00
2022-09-23T23:27:11.237Z,81.90
2022-09-23T23:29:39.196Z,82.00
2022-09-23T23:32:09.740Z,83.50
2022-09-23T23:34:37.684Z,82.30
2022-09-23T23:37:05.575Z,82.30
2022-09-23T23:39:35.481Z,82.30
2022-09-23T23:42:04.695Z,82.70
2022-09-23T23:44:34.401Z,82.60
2022-09-23T23:47:02.673Z,82.50
2022-09-23T23:49:32.090Z,84.00
2022-09-23T23:51:59.922Z,83.30
2022-09-23T23:54:27.707Z,82.70
2022-09-23T23:56:55.576Z,83.30
2022-09-23T23:59:23.658Z,85.30
